createdAt,value
2022-09-12T00:01:52.675Z,99542.06
2022-09-12T00:03:55.462Z,99548.28
2022-09-12T00:05:57.151Z,99543.03
2022-09-12T00:07:58.967Z,99539.38
2022-09-12T00:10:00.623Z,99539.38
2022-09-12T00:12:02.557Z,99545.59
2022-09-12T00:14:04.604Z,99535.00
2022-09-12T00:16:08.823Z,99539.38
2022-09-12T00:18:14.009Z,99543.75
2022-09-12T00:20:15.735Z,99541.97
2022-09-12T00:22:17.533Z,99538.41
2022-09-12T00:24:19.246Z,99535.72
2022-09-12T00:26:21.325Z,99538.41
2022-09-12T00:28:23.045Z,99534.75
2022-09-12T00:30:24.746Z,99533.03
2022-09-12T00:32:26.450Z,99530.34
2022-09-12T00:34:28.177Z,99526.81
2022-09-12T00:36:30.005Z,99531.34
2022-09-12T00:38:31.772Z,99524.28
2022-09-12T00:40:33.480Z,99530.50
2022-09-12T00:42:35.194Z,99524.28
2022-09-12T00:44:42.107Z,99520.72
2022-09-12T00:46:48.872Z,99519.78
2022-09-12T00:48:54.878Z,99523.41
2022-09-12T00:50:56.548Z,99516.25
2022-09-12T00:53:00.159Z,99514.53
2022-09-12T00:55:17.167Z,99518.03
2022-09-12T00:57:18.864Z,99516.25
2022-09-12T00:59:22.923Z,99517.19
2022-09-12T01:01:25.447Z,99525.88
2022-09-12T01:03:28.817Z,99514.16
2022-09-12T01:05:30.884Z,99504.28
2022-09-12T01:07:39.304Z,99508.91
2022-09-12T01:09:42.662Z,99506.38
2022-09-12T01:11:44.355Z,99508.22
2022-09-12T01:13:46.058Z,99502.84
2022-09-12T01:15:47.821Z,99501.13
2022-09-12T01:18:08.065Z,99501.13
2022-09-12T01:20:40.191Z,99506.47
2022-09-12T01:23:03.562Z,99500.16
2022-09-12T01:25:15.447Z,99500.28
2022-09-12T01:27:52.205Z,99487.88
2022-09-12T01:30:15.449Z,99493.22
2022-09-12T01:32:57.489Z,99497.69
2022-09-12T01:35:07.587Z,99491.38
2022-09-12T01:37:31.158Z,99492.34
2022-09-12T01:39:50.999Z,99488.81
2022-09-12T01:41:56.372Z,99498.69
2022-09-12T01:44:04.914Z,99496.00
2022-09-12T01:46:23.563Z,99498.69
2022-09-12T01:48:30.478Z,99499.53
2022-09-12T01:50:33.037Z,99497.69
2022-09-12T01:52:41.598Z,99498.59
2022-09-12T01:54:50.080Z,99501.38
2022-09-12T01:56:53.106Z,99496.84
2022-09-12T01:58:56.750Z,99503.06
2022-09-12T02:01:06.995Z,99494.06
2022-09-12T02:03:11.228Z,99494.06
2022-09-12T02:05:21.908Z,99498.59
2022-09-12T02:07:36.885Z,99496.75
2022-09-12T02:09:46.208Z,99491.38
2022-09-12T02:11:47.973Z,99487.72
2022-09-12T02:13:56.422Z,99488.72
2022-09-12T02:16:09.734Z,99494.06
2022-09-12T02:18:12.680Z,99488.81
2022-09-12T02:20:31.067Z,99492.34
2022-09-12T02:22:38.541Z,99493.22
2022-09-12T02:24:41.732Z,99484.31
2022-09-12T02:26:55.652Z,99493.31
2022-09-12T02:28:57.315Z,99488.72
2022-09-12T02:31:26.551Z,99485.28
2022-09-12T02:33:33.098Z,99488.91
2022-09-12T02:35:51.761Z,99489.81
2022-09-12T02:38:05.883Z,99490.66
2022-09-12T02:40:07.875Z,99493.31
2022-09-12T02:42:09.592Z,99483.56
2022-09-12T02:44:11.358Z,99484.91
2022-09-12T02:46:27.178Z,99484.06
2022-09-12T02:48:31.719Z,99478.81
2022-09-12T02:50:33.445Z,99481.63
2022-09-12T02:52:35.234Z,99484.41
2022-09-12T02:54:36.902Z,99485.25
2022-09-12T02:56:41.145Z,99486.84
2022-09-12T02:58:42.856Z,99482.56
2022-09-12T03:00:49.069Z,99488.78
2022-09-12T03:02:54.616Z,99477.22
2022-09-12T03:05:18.382Z,99483.31
2022-09-12T03:07:56.864Z,99483.41
2022-09-12T03:10:19.764Z,99483.41
2022-09-12T03:12:39.634Z,99478.06
2022-09-12T03:15:04.815Z,99480.75
2022-09-12T03:17:17.914Z,99483.41
2022-09-12T03:19:27.632Z,99482.56
2022-09-12T03:21:36.477Z,99486.97
2022-09-12T03:23:57.890Z,99496.72
2022-09-12T03:26:03.064Z,99493.03
2022-09-12T03:28:12.131Z,99489.41
2022-09-12T03:30:13.779Z,99490.25
2022-09-12T03:32:15.527Z,99495.50
2022-09-12T03:34:17.710Z,99492.84
2022-09-12T03:36:24.200Z,99497.09
2022-09-12T03:38:25.934Z,99497.22
2022-09-12T03:40:27.737Z,99494.53
2022-09-12T03:42:29.412Z,99492.84
2022-09-12T03:44:31.079Z,99494.53
2022-09-12T03:46:32.826Z,99498.44
2022-09-12T03:48:34.601Z,99493.81
2022-09-12T03:50:36.391Z,99496.84
2022-09-12T03:52:38.073Z,99493.69
2022-09-12T03:54:39.767Z,99493.78
2022-09-12T03:56:41.402Z,99490.63
2022-09-12T03:58:43.238Z,99491.59
2022-09-12T04:00:44.915Z,99497.91
2022-09-12T04:02:47.045Z,99493.03
2022-09-12T04:04:48.835Z,99492.59
2022-09-12T04:06:50.542Z,99495.28
2022-09-12T04:08:52.947Z,99511.38
2022-09-12T04:10:54.805Z,99513.06
2022-09-12T04:12:56.509Z,99514.16
2022-09-12T04:14:58.179Z,99511.84
2022-09-12T04:17:00.532Z,99511.00
2022-09-12T04:19:02.226Z,99514.41
2022-09-12T04:21:17.986Z,99507.31
2022-09-12T04:23:19.782Z,99504.78
2022-09-12T04:25:21.520Z,99501.25
2022-09-12T04:27:23.188Z,99500.63
2022-09-12T04:29:24.931Z,99508.91
2022-09-12T04:31:26.725Z,99507.19
2022-09-12T04:33:28.427Z,99509.13
2022-09-12T04:35:30.095Z,99507.44
2022-09-12T04:37:31.747Z,99508.41
2022-09-12T04:39:33.387Z,99508.53
2022-09-12T04:41:36.430Z,99508.63
2022-09-12T04:43:38.111Z,99506.78
2022-09-12T04:45:39.824Z,99501.44
2022-09-12T04:47:41.470Z,99509.63
2022-09-12T04:49:43.169Z,99509.63
2022-09-12T04:51:44.952Z,99505.94
2022-09-12T04:53:50.849Z,99500.72
2022-09-12T04:55:52.478Z,99508.88
2022-09-12T04:57:54.117Z,99508.75
2022-09-12T04:59:55.794Z,99513.25
2022-09-12T05:01:57.486Z,99516.81
2022-09-12T05:03:59.254Z,99518.59
2022-09-12T05:06:04.211Z,99507.88
2022-09-12T05:08:05.918Z,99516.91
2022-09-12T05:10:08.322Z,99516.91
2022-09-12T05:12:10.012Z,99522.28
2022-09-12T05:14:11.769Z,99515.19
2022-09-12T05:16:14.317Z,99509.81
2022-09-12T05:18:16.006Z,99517.00
2022-09-12T05:20:17.652Z,99496.56
2022-09-12T05:22:19.308Z,99499.25
2022-09-12T05:24:21.004Z,99493.03
2022-09-12T05:26:22.767Z,99486.81
2022-09-12T05:28:25.229Z,99497.66
2022-09-12T05:30:26.862Z,99502.03
2022-09-12T05:32:31.405Z,99496.81
2022-09-12T05:34:32.991Z,99501.28
2022-09-12T05:36:34.706Z,99502.16
2022-09-12T05:38:36.657Z,99494.97
2022-09-12T05:40:38.248Z,99501.28
2022-09-12T05:42:39.836Z,99495.94
2022-09-12T05:44:41.417Z,99497.75
2022-09-12T05:46:44.137Z,99492.47
2022-09-12T05:48:46.717Z,99487.13
2022-09-12T05:50:48.397Z,99495.16
2022-09-12T05:52:50.155Z,99492.47
2022-09-12T05:54:51.830Z,99481.75
2022-09-12T05:56:53.523Z,99493.38
2022-09-12T05:58:56.106Z,99487.03
2022-09-12T06:01:08.630Z,99494.31
2022-09-12T06:03:10.302Z,99493.47
2022-09-12T06:05:11.912Z,99493.47
2022-09-12T06:07:13.587Z,99485.44
2022-09-12T06:09:15.845Z,99488.09
2022-09-12T06:11:20.024Z,99494.31
2022-09-12T06:13:21.662Z,99496.13
2022-09-12T06:15:23.306Z,99498.81
2022-09-12T06:17:24.960Z,99495.16
2022-09-12T06:19:26.663Z,99491.63
2022-09-12T06:21:28.543Z,99497.00
2022-09-12T06:23:30.140Z,99486.28
2022-09-12T06:25:31.774Z,99478.38
2022-09-12T06:27:33.374Z,99486.41
2022-09-12T06:29:35.112Z,99489.09
2022-09-12T06:31:37.753Z,99475.69
2022-09-12T06:33:40.936Z,99478.38
2022-09-12T06:35:42.725Z,99482.00
2022-09-12T06:37:46.685Z,99489.09
2022-09-12T06:39:48.366Z,99470.34
2022-09-12T06:41:51.064Z,99477.50
2022-09-12T06:43:53.008Z,99483.72
2022-09-12T06:45:54.667Z,99489.09
2022-09-12T06:47:56.363Z,99476.66
2022-09-12T06:49:57.983Z,99473.13
2022-09-12T06:51:59.621Z,99480.19
2022-09-12T06:54:01.236Z,99484.69
2022-09-12T06:56:04.980Z,99488.22
2022-09-12T06:58:06.626Z,99481.75
2022-09-12T07:00:09.060Z,99485.44
2022-09-12T07:02:10.809Z,99486.41
2022-09-12T07:04:12.742Z,99483.72
2022-09-12T07:06:15.344Z,99483.72
2022-09-12T07:08:16.988Z,99490.88
2022-09-12T07:10:22.190Z,99488.22
2022-09-12T07:12:24.141Z,99490.03
2022-09-12T07:14:25.826Z,99495.41
2022-09-12T07:16:28.021Z,99483.72
2022-09-12T07:18:29.743Z,99488.22
2022-09-12T07:20:31.436Z,99491.78
2022-09-12T07:22:33.180Z,99492.72
2022-09-12T07:24:34.856Z,99482.00
2022-09-12T07:26:36.784Z,99483.72
2022-09-12T07:28:38.584Z,99481.06
2022-09-12T07:30:40.280Z,99483.72
2022-09-12T07:32:41.942Z,99490.88
2022-09-12T07:34:44.638Z,99491.88
2022-09-12T07:36:46.264Z,99495.41
2022-09-12T07:38:48.066Z,99494.56
2022-09-12T07:40:49.858Z,99504.28
2022-09-12T07:42:51.529Z,99498.06
2022-09-12T07:44:53.274Z,99503.44
2022-09-12T07:46:55.017Z,99510.63
2022-09-12T07:48:57.771Z,99508.78
2022-09-12T07:51:04.042Z,99506.13
2022-09-12T07:53:06.073Z,99512.44
2022-09-12T07:55:08.018Z,99517.81
2022-09-12T07:57:09.662Z,99513.31
2022-09-12T07:59:11.406Z,99501.75
2022-09-12T08:01:15.024Z,99508.78
2022-09-12T08:03:16.689Z,99503.44
2022-09-12T08:05:18.944Z,99515.13
2022-09-12T08:07:20.533Z,99513.31
2022-09-12T08:09:22.118Z,99498.19
2022-09-12T08:11:24.199Z,99503.44
2022-09-12T08:13:29.364Z,99498.94
2022-09-12T08:15:30.966Z,99502.59
2022-09-12T08:17:32.575Z,99511.47
2022-09-12T08:19:34.165Z,99502.59
2022-09-12T08:21:35.740Z,99515.13
2022-09-12T08:23:37.327Z,99517.81
2022-09-12T08:25:38.943Z,99509.78
2022-09-12T08:27:40.529Z,99509.78
2022-09-12T08:29:42.281Z,99507.09
2022-09-12T08:31:43.986Z,99512.44
2022-09-12T08:33:45.880Z,99512.44
2022-09-12T08:35:47.727Z,99507.09
2022-09-12T08:37:49.412Z,99509.78
2022-09-12T08:39:51.091Z,99518.66
2022-09-12T08:42:16.514Z,99513.31
2022-09-12T08:44:41.465Z,99514.16
2022-09-12T08:47:24.292Z,99507.94
2022-09-12T08:49:27.649Z,99499.91
2022-09-12T08:51:29.403Z,99513.31
2022-09-12T08:53:31.080Z,99515.13
2022-09-12T08:55:37.639Z,99509.78
2022-09-12T08:57:39.226Z,99507.09
2022-09-12T08:59:44.705Z,99507.09
2022-09-12T09:01:46.386Z,99499.06
2022-09-12T09:04:02.733Z,99496.38
2022-09-12T09:06:16.640Z,99500.84
2022-09-12T09:08:41.140Z,99515.00
2022-09-12T09:10:51.789Z,99509.78
2022-09-12T09:13:06.896Z,99497.34
2022-09-12T09:15:27.159Z,99499.16
2022-09-12T09:17:49.288Z,99500.00
2022-09-12T09:20:11.510Z,99491.97
2022-09-12T09:22:16.040Z,99501.75
2022-09-12T09:24:21.434Z,99497.34
2022-09-12T09:26:26.006Z,99505.38
2022-09-12T09:28:38.708Z,99499.06
2022-09-12T09:30:40.375Z,99501.75
2022-09-12T09:32:42.313Z,99500.00
2022-09-12T09:34:44.011Z,99498.31
2022-09-12T09:37:00.406Z,99512.44
2022-09-12T09:39:05.494Z,99509.78
2022-09-12T09:41:31.899Z,99501.75
2022-09-12T09:43:33.537Z,99495.50
2022-09-12T09:45:35.176Z,99499.06
2022-09-12T09:47:36.782Z,99499.06
2022-09-12T09:49:38.433Z,99500.84
2022-09-12T09:51:40.793Z,99508.06
2022-09-12T09:53:53.013Z,99506.22
2022-09-12T09:55:55.645Z,99496.38
2022-09-12T09:57:57.276Z,99507.09
2022-09-12T09:59:58.907Z,99497.34
2022-09-12T10:02:13.677Z,99496.38
2022-09-12T10:04:23.406Z,99489.31
2022-09-12T10:06:41.471Z,99496.38
2022-09-12T10:08:43.065Z,99501.75
2022-09-12T10:10:58.369Z,99492.81
2022-09-12T10:13:10.191Z,99496.38
2022-09-12T10:15:18.862Z,99484.78
2022-09-12T10:17:40.128Z,99495.50
2022-09-12T10:19:41.716Z,99496.38
2022-09-12T10:21:47.902Z,99496.38
2022-09-12T10:23:53.098Z,99496.38
2022-09-12T10:25:57.638Z,99495.50
2022-09-12T10:28:00.180Z,99491.97
2022-09-12T10:30:02.517Z,99496.38
2022-09-12T10:32:06.373Z,99496.38
2022-09-12T10:34:24.214Z,99501.75
2022-09-12T10:36:25.905Z,99497.22
2022-09-12T10:38:28.432Z,99499.06
2022-09-12T10:40:32.123Z,99497.22
2022-09-12T10:42:53.546Z,99495.41
2022-09-12T10:44:55.237Z,99493.56
2022-09-12T10:46:57.250Z,99492.72
2022-09-12T10:49:28.302Z,99494.56
2022-09-12T10:51:29.989Z,99491.88
2022-09-12T10:53:41.775Z,99488.34
2022-09-12T10:56:08.346Z,99492.72
2022-09-12T10:58:21.230Z,99492.72
2022-09-12T11:00:22.879Z,99491.03
2022-09-12T11:03:08.687Z,99490.03
2022-09-12T11:05:22.440Z,99483.00
2022-09-12T11:07:39.712Z,99482.00
2022-09-12T11:09:56.290Z,99479.31
2022-09-12T11:12:18.917Z,99479.31
2022-09-12T11:14:47.740Z,99480.31
2022-09-12T11:17:00.172Z,99482.84
2022-09-12T11:19:30.797Z,99487.38
2022-09-12T11:21:47.156Z,99484.69
2022-09-12T11:23:57.522Z,99478.38
2022-09-12T11:26:22.087Z,99488.22
2022-09-12T11:28:51.391Z,99487.38
2022-09-12T11:30:56.891Z,99479.31
2022-09-12T11:33:28.973Z,99480.19
2022-09-12T11:35:34.841Z,99481.06
2022-09-12T11:37:55.139Z,99483.72
2022-09-12T11:39:57.058Z,99490.03
2022-09-12T11:42:00.624Z,99489.09
2022-09-12T11:44:16.382Z,99482.84
2022-09-12T11:46:23.994Z,99481.91
2022-09-12T11:48:34.831Z,99484.69
2022-09-12T11:50:36.491Z,99478.38
2022-09-12T11:52:38.248Z,99477.50
2022-09-12T11:54:42.858Z,99476.53
2022-09-12T11:56:48.111Z,99470.34
2022-09-12T11:58:54.498Z,99466.78
2022-09-12T12:01:17.524Z,99464.00
2022-09-12T12:03:44.456Z,99471.03
2022-09-12T12:06:18.331Z,99458.63
2022-09-12T12:08:24.262Z,99462.16
2022-09-12T12:10:33.683Z,99454.13
2022-09-12T12:12:35.365Z,99470.13
2022-09-12T12:14:47.559Z,99455.97
2022-09-12T12:16:49.439Z,99460.34
2022-09-12T12:18:58.448Z,99454.97
2022-09-12T12:21:38.915Z,99447.91
2022-09-12T12:23:40.635Z,99447.91
2022-09-12T12:25:51.969Z,99454.97
2022-09-12T12:28:00.035Z,99452.28
2022-09-12T12:30:01.670Z,99442.56
2022-09-12T12:32:03.260Z,99452.28
2022-09-12T12:34:14.641Z,99446.94
2022-09-12T12:36:39.334Z,99444.25
2022-09-12T12:38:41.064Z,99446.00
2022-09-12T12:40:42.818Z,99446.94
2022-09-12T12:42:44.437Z,99446.00
2022-09-12T12:44:46.050Z,99447.72
2022-09-12T12:47:18.665Z,99449.44
2022-09-12T12:49:24.549Z,99452.13
2022-09-12T12:51:35.417Z,99449.44
2022-09-12T12:53:37.076Z,99452.13
2022-09-12T12:55:44.536Z,99455.19
2022-09-12T12:58:28.994Z,99448.63
2022-09-12T13:00:39.783Z,99454.13
2022-09-12T13:02:52.622Z,99449.63
2022-09-12T13:04:54.358Z,99450.00
2022-09-12T13:07:08.425Z,99449.03
2022-09-12T13:09:16.381Z,99438.41
2022-09-12T13:11:31.118Z,99431.44
2022-09-12T13:13:44.322Z,99435.31
2022-09-12T13:15:50.979Z,99441.53
2022-09-12T13:17:52.807Z,99444.06
2022-09-12T13:20:26.291Z,99437.47
2022-09-12T13:22:23.625Z,99437.72
2022-09-12T13:24:25.415Z,99438.44
2022-09-12T13:26:27.170Z,99442.09
2022-09-12T13:28:29.886Z,99436.47
2022-09-12T13:30:36.197Z,99434.13
2022-09-12T13:32:38.679Z,99441.78
2022-09-12T13:34:56.991Z,99442.53
2022-09-12T13:37:21.610Z,99437.88
2022-09-12T13:39:34.904Z,99431.03
2022-09-12T13:41:47.306Z,99434.19
2022-09-12T13:43:49.229Z,99436.50
2022-09-12T13:45:51.239Z,99434.16
2022-09-12T13:47:58.943Z,99437.16
2022-09-12T13:50:00.827Z,99427.00
2022-09-12T13:52:07.298Z,99422.81
2022-09-12T13:54:12.657Z,99427.72
2022-09-12T13:56:18.218Z,99423.97
2022-09-12T13:58:25.296Z,99421.50
2022-09-12T14:00:27.177Z,99417.56
2022-09-12T14:02:29.180Z,99423.19
2022-09-12T14:04:30.951Z,99424.97
2022-09-12T14:06:48.679Z,99424.06
2022-09-12T14:08:51.240Z,99424.69
2022-09-12T14:10:52.978Z,99425.81
2022-09-12T14:12:54.780Z,99428.72
2022-09-12T14:14:56.659Z,99432.56
2022-09-12T14:16:59.094Z,99432.19
2022-09-12T14:19:00.805Z,99422.94
2022-09-12T14:21:12.629Z,99427.31
2022-09-12T14:23:25.280Z,99424.44
2022-09-12T14:25:27.102Z,99428.66
2022-09-12T14:27:31.958Z,99426.09
2022-09-12T14:29:33.960Z,99429.03
2022-09-12T14:31:37.471Z,99430.66
2022-09-12T14:33:52.356Z,99417.56
2022-09-12T14:36:12.498Z,99426.63
2022-09-12T14:38:16.995Z,99417.31
2022-09-12T14:40:22.986Z,99422.16
2022-09-12T14:42:26.919Z,99425.88
2022-09-12T14:44:28.732Z,99433.34
2022-09-12T14:46:31.493Z,99439.47
2022-09-12T14:48:36.092Z,99436.06
2022-09-12T14:50:37.960Z,99434.06
2022-09-12T14:52:39.778Z,99442.28
2022-09-12T14:54:54.786Z,99431.69
2022-09-12T14:56:58.004Z,99430.56
2022-09-12T14:59:20.438Z,99436.78
2022-09-12T15:01:23.457Z,99434.38
2022-09-12T15:03:27.325Z,99436.84
2022-09-12T15:05:31.858Z,99449.09
2022-09-12T15:07:40.331Z,99444.69
2022-09-12T15:09:47.115Z,99443.19
2022-09-12T15:11:49.408Z,99442.16
2022-09-12T15:13:51.157Z,99449.03
2022-09-12T15:15:57.124Z,99445.88
2022-09-12T15:18:01.411Z,99444.44
2022-09-12T15:20:07.569Z,99450.19
2022-09-12T15:22:15.223Z,99456.19
2022-09-12T15:24:17.132Z,99447.63
2022-09-12T15:26:22.979Z,99452.28
2022-09-12T15:28:25.070Z,99447.44
2022-09-12T15:30:26.958Z,99449.50
2022-09-12T15:32:32.264Z,99451.06
2022-09-12T15:34:37.062Z,99455.06
2022-09-12T15:36:38.871Z,99454.97
2022-09-12T15:38:41.357Z,99462.75
2022-09-12T15:40:43.288Z,99456.81
2022-09-12T15:42:46.520Z,99464.13
2022-09-12T15:44:48.707Z,99462.19
2022-09-12T15:46:50.439Z,99470.34
2022-09-12T15:48:52.693Z,99471.44
2022-09-12T15:50:54.727Z,99464.38
2022-09-12T15:52:56.848Z,99470.25
2022-09-12T15:54:58.568Z,99471.94
2022-09-12T15:57:00.296Z,99468.56
2022-09-12T15:59:02.054Z,99473.19
2022-09-12T16:01:04.650Z,99475.72
2022-09-12T16:03:06.886Z,99475.53
2022-09-12T16:05:15.604Z,99476.41
2022-09-12T16:07:17.481Z,99466.56
2022-09-12T16:09:19.811Z,99471.88
2022-09-12T16:11:23.400Z,99454.66
2022-09-12T16:13:26.233Z,99461.78
2022-09-12T16:15:28.661Z,99455.31
2022-09-12T16:17:30.413Z,99457.28
2022-09-12T16:19:32.528Z,99458.00
2022-09-12T16:21:34.447Z,99463.00
2022-09-12T16:23:36.353Z,99465.81
2022-09-12T16:25:38.188Z,99464.13
2022-09-12T16:27:40.291Z,99438.09
2022-09-12T16:29:42.263Z,99460.22
2022-09-12T16:31:44.223Z,99451.38
2022-09-12T16:33:46.166Z,99458.47
2022-09-12T16:35:48.365Z,99457.25
2022-09-12T16:37:50.055Z,99463.78
2022-09-12T16:39:52.543Z,99458.81
2022-09-12T16:41:54.418Z,99462.63
2022-09-12T16:43:56.090Z,99464.66
2022-09-12T16:46:05.799Z,99463.66
2022-09-12T16:48:07.826Z,99469.03
2022-09-12T16:50:10.040Z,99467.16
2022-09-12T16:52:11.856Z,99468.72
2022-09-12T16:54:16.603Z,99466.34
2022-09-12T16:56:18.388Z,99467.91
2022-09-12T16:58:20.263Z,99471.31
2022-09-12T17:00:22.547Z,99474.44
2022-09-12T17:02:24.562Z,99465.63
2022-09-12T17:04:26.445Z,99466.22
2022-09-12T17:06:28.351Z,99477.84
2022-09-12T17:08:30.120Z,99467.06
2022-09-12T17:10:31.950Z,99475.78
2022-09-12T17:12:33.685Z,99484.03
2022-09-12T17:14:35.721Z,99468.31
2022-09-12T17:16:39.177Z,99480.34
2022-09-12T17:18:40.991Z,99474.94
2022-09-12T17:20:42.964Z,99474.97
2022-09-12T17:22:45.106Z,99468.44
2022-09-12T17:24:46.877Z,99470.59
2022-09-12T17:26:49.215Z,99470.72
2022-09-12T17:28:51.162Z,99474.97
2022-09-12T17:31:01.089Z,99478.25
2022-09-12T17:33:03.092Z,99479.09
2022-09-12T17:35:05.575Z,99480.38
2022-09-12T17:37:07.360Z,99486.47
2022-09-12T17:39:09.409Z,99486.75
2022-09-12T17:41:15.576Z,99478.38
2022-09-12T17:43:17.821Z,99485.19
2022-09-12T17:45:19.474Z,99481.06
2022-09-12T17:47:21.401Z,99479.63
2022-09-12T17:49:23.588Z,99482.31
2022-09-12T17:51:26.324Z,99483.56
2022-09-12T17:53:34.059Z,99484.25
2022-09-12T17:55:36.515Z,99481.16
2022-09-12T17:57:38.432Z,99483.13
2022-09-12T17:59:40.647Z,99489.22
2022-09-12T18:01:42.481Z,99488.03
2022-09-12T18:03:44.292Z,99481.91
2022-09-12T18:05:52.740Z,99483.06
2022-09-12T18:07:54.512Z,99481.84
2022-09-12T18:09:56.220Z,99484.47
2022-09-12T18:11:58.996Z,99495.44
2022-09-12T18:14:01.638Z,99482.06
2022-09-12T18:16:08.406Z,99494.16
2022-09-12T18:18:10.606Z,99496.06
2022-09-12T18:20:12.486Z,99481.03
2022-09-12T18:22:14.255Z,99484.50
2022-09-12T18:24:15.998Z,99490.75
2022-09-12T18:26:17.794Z,99497.53
2022-09-12T18:28:19.591Z,99490.59
2022-09-12T18:30:22.234Z,99486.88
2022-09-12T18:32:24.135Z,99488.19
2022-09-12T18:34:26.052Z,99487.53
2022-09-12T18:36:28.392Z,99491.69
2022-09-12T18:38:30.895Z,99488.03
2022-09-12T18:40:32.782Z,99488.16
2022-09-12T18:42:34.565Z,99482.91
2022-09-12T18:44:36.298Z,99486.09
2022-09-12T18:46:38.300Z,99484.50
2022-09-12T18:48:40.064Z,99481.09
2022-09-12T18:50:41.789Z,99484.75
2022-09-12T18:52:43.805Z,99481.47
2022-09-12T18:54:45.617Z,99483.28
2022-09-12T18:56:47.345Z,99477.34
2022-09-12T18:58:56.174Z,99487.34
2022-09-12T19:00:58.031Z,99489.28
2022-09-12T19:02:59.883Z,99487.56
2022-09-12T19:05:02.040Z,99483.28
2022-09-12T19:07:03.981Z,99484.25
2022-09-12T19:09:08.094Z,99483.50
2022-09-12T19:11:09.966Z,99481.81
2022-09-12T19:13:11.705Z,99487.28
2022-09-12T19:15:13.532Z,99484.63
2022-09-12T19:17:15.247Z,99488.28
2022-09-12T19:19:17.059Z,99485.59
2022-09-12T19:21:23.634Z,99479.50
2022-09-12T19:23:26.445Z,99480.47
2022-09-12T19:25:28.160Z,99483.13
2022-09-12T19:27:30.100Z,99490.44
2022-09-12T19:29:31.934Z,99488.66
2022-09-12T19:31:33.882Z,99483.41
2022-09-12T19:33:35.600Z,99479.88
2022-09-12T19:35:37.293Z,99485.22
2022-09-12T19:37:39.006Z,99490.59
2022-09-12T19:39:40.675Z,99496.06
2022-09-12T19:41:42.880Z,99489.84
2022-09-12T19:43:44.798Z,99492.53
2022-09-12T19:45:47.037Z,99489.00
2022-09-12T19:47:48.778Z,99487.28
2022-09-12T19:49:50.625Z,99484.75
2022-09-12T19:51:52.311Z,99485.59
2022-09-12T19:53:54.020Z,99477.56
2022-09-12T19:55:59.634Z,99489.00
2022-09-12T19:58:01.569Z,99489.72
2022-09-12T20:00:04.504Z,99480.97
2022-09-12T20:02:06.275Z,99482.66
2022-09-12T20:04:08.091Z,99481.06
2022-09-12T20:06:11.585Z,99485.59
2022-09-12T20:08:13.359Z,99483.88
2022-09-12T20:10:15.304Z,99472.28
2022-09-12T20:12:17.058Z,99482.16
2022-09-12T20:14:18.705Z,99481.31
2022-09-12T20:16:24.802Z,99477.66
2022-09-12T20:18:26.555Z,99478.50
2022-09-12T20:20:29.103Z,99477.56
2022-09-12T20:22:30.806Z,99472.19
2022-09-12T20:24:32.639Z,99477.66
2022-09-12T20:26:34.404Z,99470.47
2022-09-12T20:28:37.215Z,99476.81
2022-09-12T20:30:38.945Z,99475.81
2022-09-12T20:32:41.306Z,99475.09
2022-09-12T20:34:43.041Z,99473.28
2022-09-12T20:36:45.316Z,99478.66
2022-09-12T20:38:50.451Z,99484.13
2022-09-12T20:40:52.162Z,99476.06
2022-09-12T20:42:53.826Z,99470.81
2022-09-12T20:44:55.501Z,99479.75
2022-09-12T20:46:57.256Z,99469.13
2022-09-12T20:48:58.980Z,99470.81
2022-09-12T20:51:00.734Z,99465.34
2022-09-12T20:53:02.414Z,99471.69
2022-09-12T20:55:04.375Z,99466.34
2022-09-12T20:57:06.257Z,99469.03
2022-09-12T20:59:08.094Z,99466.34
2022-09-12T21:01:10.909Z,99460.97
2022-09-12T21:03:13.385Z,99460.97
2022-09-12T21:05:15.088Z,99468.03
2022-09-12T21:07:16.836Z,99464.34
2022-09-12T21:09:18.515Z,99463.28
2022-09-12T21:11:20.262Z,99467.78
2022-09-12T21:13:21.992Z,99474.13
2022-09-12T21:15:23.984Z,99468.75
2022-09-12T21:17:25.754Z,99467.91
2022-09-12T21:19:27.480Z,99469.50
2022-09-12T21:21:29.165Z,99476.56
2022-09-12T21:23:31.005Z,99471.19
2022-09-12T21:25:32.729Z,99475.72
2022-09-12T21:27:34.438Z,99469.50
2022-09-12T21:29:36.130Z,99474.03
2022-09-12T21:31:37.857Z,99473.13
2022-09-12T21:33:39.631Z,99463.41
2022-09-12T21:35:41.326Z,99464.13
2022-09-12T21:37:43.001Z,99461.56
2022-09-12T21:39:44.765Z,99461.56
2022-09-12T21:41:46.474Z,99464.34
2022-09-12T21:43:48.186Z,99467.03
2022-09-12T21:45:49.922Z,99454.50
2022-09-12T21:47:51.632Z,99460.72
2022-09-12T21:49:53.330Z,99458.16
2022-09-12T21:51:54.963Z,99450.84
2022-09-12T21:53:56.767Z,99457.06
2022-09-12T21:56:06.371Z,99451.69
2022-09-12T21:58:08.050Z,99449.00
2022-09-12T22:00:17.512Z,99442.69
2022-09-12T22:02:19.624Z,99444.63
2022-09-12T22:04:21.454Z,99444.63
2022-09-12T22:06:23.157Z,99446.47
2022-09-12T22:08:24.810Z,99439.28
2022-09-12T22:10:29.497Z,99445.47
2022-09-12T22:12:31.169Z,99439.28
2022-09-12T22:14:32.926Z,99447.44
2022-09-12T22:16:34.627Z,99440.22
2022-09-12T22:18:36.522Z,99443.91
2022-09-12T22:20:38.251Z,99448.28
2022-09-12T22:22:39.938Z,99441.22
2022-09-12T22:24:41.588Z,99441.31
2022-09-12T22:26:44.256Z,99444.00
2022-09-12T22:28:45.992Z,99441.47
2022-09-12T22:30:47.916Z,99436.09
2022-09-12T22:32:49.922Z,99437.91
2022-09-12T22:34:51.583Z,99436.09
2022-09-12T22:36:53.273Z,99433.44
2022-09-12T22:38:55.012Z,99445.09
2022-09-12T22:40:56.961Z,99439.63
2022-09-12T22:42:58.671Z,99442.31
2022-09-12T22:45:00.327Z,99437.78
2022-09-12T22:47:01.968Z,99440.47
2022-09-12T22:49:04.318Z,99436.94
2022-09-12T22:51:06.321Z,99435.22
2022-09-12T22:53:08.048Z,99425.50
2022-09-12T22:55:09.766Z,99428.06
2022-09-12T22:57:11.431Z,99431.69
2022-09-12T22:59:13.088Z,99426.47
2022-09-12T23:01:14.883Z,99422.81
2022-09-12T23:03:17.635Z,99428.28
2022-09-12T23:05:19.331Z,99429.03
2022-09-12T23:07:21.085Z,99431.59
2022-09-12T23:09:22.733Z,99421.97
2022-09-12T23:11:24.407Z,99419.28
2022-09-12T23:13:26.182Z,99416.59
2022-09-12T23:15:27.866Z,99423.53
2022-09-12T23:17:29.578Z,99410.41
2022-09-12T23:19:31.219Z,99413.91
2022-09-12T23:21:32.934Z,99412.09
2022-09-12T23:23:34.946Z,99405.03
2022-09-12T23:25:36.832Z,99405.03
2022-09-12T23:27:38.488Z,99411.34
2022-09-12T23:29:40.147Z,99409.50
2022-09-12T23:31:41.857Z,99410.41
2022-09-12T23:33:43.664Z,99408.66
2022-09-12T23:35:45.386Z,99412.19
2022-09-12T23:37:47.477Z,99408.66
2022-09-12T23:39:49.245Z,99401.47
2022-09-12T23:41:51.071Z,99400.63
2022-09-12T23:43:52.779Z,99407.72
2022-09-12T23:45:54.485Z,99397.84
2022-09-12T23:47:56.178Z,99397.09
2022-09-12T23:49:57.866Z,99402.34
2022-09-12T23:51:59.570Z,99397.84
2022-09-12T23:54:01.281Z,99390.03
2022-09-12T23:56:03.077Z,99388.31
2022-09-12T23:58:04.804Z,99384.91
